sensor_id;sensor_type;location;lat;lon;timestamp;temperature;humidity
9393;DHT22;4736;52.508;13.422;2024-02-16T00:01:47;10.20;82.80
9393;DHT22;4736;52.508;13.422;2024-02-16T00:04:52;10.10;82.90
9393;DHT22;4736;52.508;13.422;2024-02-16T00:07:55;10.00;83.10
9393;DHT22;4736;52.508;13.422;2024-02-16T00:10:58;10.00;83.40
9393;DHT22;4736;52.508;13.422;2024-02-16T00:14:02;10.00;83.30
9393;DHT22;4736;52.508;13.422;2024-02-16T00:17:05;9.90;83.40
9393;DHT22;4736;52.508;13.422;2024-02-16T00:20:10;10.00;83.40
9393;DHT22;4736;52.508;13.422;2024-02-16T00:23:15;9.90;83.40
9393;DHT22;4736;52.508;13.422;2024-02-16T00:26:18;9.80;83.30
9393;DHT22;4736;52.508;13.422;2024-02-16T00:29:22;9.80;83.30
9393;DHT22;4736;52.508;13.422;2024-02-16T00:32:26;9.70;83.60
9393;DHT22;4736;52.508;13.422;2024-02-16T00:35:33;9.70;83.60
9393;DHT22;4736;52.508;13.422;2024-02-16T00:38:37;9.70;83.60
9393;DHT22;4736;52.508;13.422;2024-02-16T00:41:40;9.60;83.80
9393;DHT22;4736;52.508;13.422;2024-02-16T00:44:43;9.60;83.60
9393;DHT22;4736;52.508;13.422;2024-02-16T00:47:46;9.60;83.60
9393;DHT22;4736;52.508;13.422;2024-02-16T00:50:55;9.60;83.60
9393;DHT22;4736;52.508;13.422;2024-02-16T00:53:58;9.60;83.50
9393;DHT22;4736;52.508;13.422;2024-02-16T00:57:01;9.60;83.50
9393;DHT22;4736;52.508;13.422;2024-02-16T01:00:06;9.60;83.40
9393;DHT22;4736;52.508;13.422;2024-02-16T01:03:11;9.70;83.30
9393;DHT22;4736;52.508;13.422;2024-02-16T01:06:16;9.60;83.20
9393;DHT22;4736;52.508;13.422;2024-02-16T01:09:19;9.60;83.30
9393;DHT22;4736;52.508;13.422;2024-02-16T01:12:22;9.50;83.40
9393;DHT22;4736;52.508;13.422;2024-02-16T01:15:26;9.60;83.50
9393;DHT22;4736;52.508;13.422;2024-02-16T01:18:29;9.60;83.20
9393;DHT22;4736;52.508;13.422;2024-02-16T01:21:36;9.50;83.20
9393;DHT22;4736;52.508;13.422;2024-02-16T01:24:39;9.40;83.20
9393;DHT22;4736;52.508;13.422;2024-02-16T01:27:43;9.40;83.20
9393;DHT22;4736;52.508;13.422;2024-02-16T01:30:46;9.40;83.30
9393;DHT22;4736;52.508;13.422;2024-02-16T01:33:49;9.30;83.40
9393;DHT22;4736;52.508;13.422;2024-02-16T01:36:56;9.20;83.60
9393;DHT22;4736;52.508;13.422;2024-02-16T01:40:04;9.20;83.60
9393;DHT22;4736;52.508;13.422;2024-02-16T01:43:07;9.10;83.80
9393;DHT22;4736;52.508;13.422;2024-02-16T01:46:11;9.00;83.90
9393;DHT22;4736;52.508;13.422;2024-02-16T01:49:15;9.00;84.10
9393;DHT22;4736;52.508;13.422;2024-02-16T01:52:19;9.00;84.00
9393;DHT22;4736;52.508;13.422;2024-02-16T01:55:23;9.00;84.20
9393;DHT22;4736;52.508;13.422;2024-02-16T01:58:26;9.00;84.30
9393;DHT22;4736;52.508;13.422;2024-02-16T02:01:30;8.90;84.30
9393;DHT22;4736;52.508;13.422;2024-02-16T02:04:33;8.90;84.60
9393;DHT22;4736;52.508;13.422;2024-02-16T02:07:38;8.90;84.70
9393;DHT22;4736;52.508;13.422;2024-02-16T02:10:42;8.90;84.70
9393;DHT22;4736;52.508;13.422;2024-02-16T02:13:46;8.90;84.60
9393;DHT22;4736;52.508;13.422;2024-02-16T02:16:49;8.80;84.70
9393;DHT22;4736;52.508;13.422;2024-02-16T02:20:00;8.80;84.70
9393;DHT22;4736;52.508;13.422;2024-02-16T02:23:04;8.80;84.70
9393;DHT22;4736;52.508;13.422;2024-02-16T02:26:08;8.80;84.70
9393;DHT22;4736;52.508;13.422;2024-02-16T02:29:11;8.80;84.70
9393;DHT22;4736;52.508;13.422;2024-02-16T02:32:14;8.80;84.90
9393;DHT22;4736;52.508;13.422;2024-02-16T02:35:18;8.80;85.00
9393;DHT22;4736;52.508;13.422;2024-02-16T02:38:22;8.80;84.80
9393;DHT22;4736;52.508;13.422;2024-02-16T02:41:25;8.80;84.60
9393;DHT22;4736;52.508;13.422;2024-02-16T02:44:28;8.80;84.60
9393;DHT22;4736;52.508;13.422;2024-02-16T02:47:33;8.80;84.40
9393;DHT22;4736;52.508;13.422;2024-02-16T02:50:36;8.80;84.70
9393;DHT22;4736;52.508;13.422;2024-02-16T02:53:41;8.80;84.60
9393;DHT22;4736;52.508;13.422;2024-02-16T02:56:45;8.80;84.60
9393;DHT22;4736;52.508;13.422;2024-02-16T02:59:48;8.70;84.50
9393;DHT22;4736;52.508;13.422;2024-02-16T03:02:51;8.70;84.70
9393;DHT22;4736;52.508;13.422;2024-02-16T03:05:54;8.70;84.70
9393;DHT22;4736;52.508;13.422;2024-02-16T03:08:59;8.80;84.70
9393;DHT22;4736;52.508;13.422;2024-02-16T03:12:04;8.70;84.50
9393;DHT22;4736;52.508;13.422;2024-02-16T03:15:08;8.70;84.40
9393;DHT22;4736;52.508;13.422;2024-02-16T03:18:11;8.70;84.70
9393;DHT22;4736;52.508;13.422;2024-02-16T03:21:16;8.70;84.70
9393;DHT22;4736;52.508;13.422;2024-02-16T03:24:21;8.70;84.70
9393;DHT22;4736;52.508;13.422;2024-02-16T03:27:24;8.80;84.40
9393;DHT22;4736;52.508;13.422;2024-02-16T03:30:27;8.70;84.40
9393;DHT22;4736;52.508;13.422;2024-02-16T03:33:30;8.70;84.40
9393;DHT22;4736;52.508;13.422;2024-02-16T03:36:33;8.70;84.30
9393;DHT22;4736;52.508;13.422;2024-02-16T03:39:38;8.70;84.20
9393;DHT22;4736;52.508;13.422;2024-02-16T03:42:41;8.80;84.30
9393;DHT22;4736;52.508;13.422;2024-02-16T03:45:44;8.70;84.10
9393;DHT22;4736;52.508;13.422;2024-02-16T03:48:47;8.70;84.10
9393;DHT22;4736;52.508;13.422;2024-02-16T03:51:51;8.70;84.10
9393;DHT22;4736;52.508;13.422;2024-02-16T03:54:56;8.60;84.10
9393;DHT22;4736;52.508;13.422;2024-02-16T03:57:59;8.60;84.10
9393;DHT22;4736;52.508;13.422;2024-02-16T04:01:02;8.60;83.90
9393;DHT22;4736;52.508;13.422;2024-02-16T04:04:07;8.60;83.70
9393;DHT22;4736;52.508;13.422;2024-02-16T04:07:10;8.60;83.70
9393;DHT22;4736;52.508;13.422;2024-02-16T04:10:15;8.60;83.70
9393;DHT22;4736;52.508;13.422;2024-02-16T04:13:18;8.60;83.90
9393;DHT22;4736;52.508;13.422;2024-02-16T04:16:21;8.60;83.90
9393;DHT22;4736;52.508;13.422;2024-02-16T04:19:26;8.60;83.80
9393;DHT22;4736;52.508;13.422;2024-02-16T04:22:30;8.60;83.90
9393;DHT22;4736;52.508;13.422;2024-02-16T04:25:40;8.60;84.00
9393;DHT22;4736;52.508;13.422;2024-02-16T04:28:43;8.60;84.00
9393;DHT22;4736;52.508;13.422;2024-02-16T04:31:46;8.60;84.00
9393;DHT22;4736;52.508;13.422;2024-02-16T04:34:49;8.60;84.00
9393;DHT22;4736;52.508;13.422;2024-02-16T04:37:56;8.60;84.00
9393;DHT22;4736;52.508;13.422;2024-02-16T04:41:00;8.60;83.70
9393;DHT22;4736;52.508;13.422;2024-02-16T04:44:03;8.60;83.70
9393;DHT22;4736;52.508;13.422;2024-02-16T04:47:08;8.60;83.50
9393;DHT22;4736;52.508;13.422;2024-02-16T04:50:11;8.60;83.40
9393;DHT22;4736;52.508;13.422;2024-02-16T04:53:17;8.60;83.50
9393;DHT22;4736;52.508;13.422;2024-02-16T04:56:21;8.70;83.30
9393;DHT22;4736;52.508;13.422;2024-02-16T04:59:25;8.70;83.30
9393;DHT22;4736;52.508;13.422;2024-02-16T05:02:29;8.70;83.10
9393;DHT22;4736;52.508;13.422;2024-02-16T05:05:32;8.60;83.30
9393;DHT22;4736;52.508;13.422;2024-02-16T05:08:35;8.60;83.50
9393;DHT22;4736;52.508;13.422;2024-02-16T05:11:40;8.60;83.60
9393;DHT22;4736;52.508;13.422;2024-02-16T05:14:43;8.60;83.50
9393;DHT22;4736;52.508;13.422;2024-02-16T05:17:47;8.60;83.50
9393;DHT22;4736;52.508;13.422;2024-02-16T05:20:52;8.60;83.50
9393;DHT22;4736;52.508;13.422;2024-02-16T05:23:55;8.60;83.60
9393;DHT22;4736;52.508;13.422;2024-02-16T05:26:59;8.60;83.40
9393;DHT22;4736;52.508;13.422;2024-02-16T05:30:03;8.60;83.50
9393;DHT22;4736;52.508;13.422;2024-02-16T05:33:09;8.60;83.50
9393;DHT22;4736;52.508;13.422;2024-02-16T05:36:16;8.50;83.70
9393;DHT22;4736;52.508;13.422;2024-02-16T05:39:20;8.60;83.60
9393;DHT22;4736;52.508;13.422;2024-02-16T05:42:30;8.50;83.60
9393;DHT22;4736;52.508;13.422;2024-02-16T05:45:34;8.60;83.50
9393;DHT22;4736;52.508;13.422;2024-02-16T05:48:38;8.60;83.50
9393;DHT22;4736;52.508;13.422;2024-02-16T05:51:42;8.50;83.60
9393;DHT22;4736;52.508;13.422;2024-02-16T05:55:02;8.50;83.40
9393;DHT22;4736;52.508;13.422;2024-02-16T05:58:07;8.50;83.50
9393;DHT22;4736;52.508;13.422;2024-02-16T06:01:10;8.50;83.50
9393;DHT22;4736;52.508;13.422;2024-02-16T06:04:15;8.50;83.50
9393;DHT22;4736;52.508;13.422;2024-02-16T06:07:18;8.50;83.60
9393;DHT22;4736;52.508;13.422;2024-02-16T06:10:21;8.50;83.60
9393;DHT22;4736;52.508;13.422;2024-02-16T06:13:26;8.50;83.60
9393;DHT22;4736;52.508;13.422;2024-02-16T06:16:29;8.50;83.60
9393;DHT22;4736;52.508;13.422;2024-02-16T06:19:32;8.50;83.60
9393;DHT22;4736;52.508;13.422;2024-02-16T06:22:36;8.50;83.70
9393;DHT22;4736;52.508;13.422;2024-02-16T06:25:39;8.50;83.40
9393;DHT22;4736;52.508;13.422;2024-02-16T06:28:44;8.50;83.50
9393;DHT22;4736;52.508;13.422;2024-02-16T06:31:47;8.50;83.40
9393;DHT22;4736;52.508;13.422;2024-02-16T06:34:51;8.40;83.50
9393;DHT22;4736;52.508;13.422;2024-02-16T06:37:54;8.50;83.60
9393;DHT22;4736;52.508;13.422;2024-02-16T06:40:58;8.40;83.70
9393;DHT22;4736;52.508;13.422;2024-02-16T06:44:02;8.40;83.80
9393;DHT22;4736;52.508;13.422;2024-02-16T06:47:06;8.50;83.80
9393;DHT22;4736;52.508;13.422;2024-02-16T06:50:10;8.50;83.60
9393;DHT22;4736;52.508;13.422;2024-02-16T06:53:13;8.50;83.60
9393;DHT22;4736;52.508;13.422;2024-02-16T06:56:16;8.50;83.70
9393;DHT22;4736;52.508;13.422;2024-02-16T06:59:21;8.60;83.40
9393;DHT22;4736;52.508;13.422;2024-02-16T07:02:24;8.50;83.30
9393;DHT22;4736;52.508;13.422;2024-02-16T07:05:27;8.50;83.20
9393;DHT22;4736;52.508;13.422;2024-02-16T07:08:57;8.50;83.30
9393;DHT22;4736;52.508;13.422;2024-02-16T07:12:23;8.60;83.20
9393;DHT22;4736;52.508;13.422;2024-02-16T07:15:52;8.60;83.10
9393;DHT22;4736;52.508;13.422;2024-02-16T07:19:18;8.60;83.00
9393;DHT22;4736;52.508;13.422;2024-02-16T07:22:45;8.60;83.00
9393;DHT22;4736;52.508;13.422;2024-02-16T07:26:12;8.60;83.00
9393;DHT22;4736;52.508;13.422;2024-02-16T07:29:40;8.70;82.70
9393;DHT22;4736;52.508;13.422;2024-02-16T07:33:08;8.70;82.70
9393;DHT22;4736;52.508;13.422;2024-02-16T07:36:36;8.90;82.70
9393;DHT22;4736;52.508;13.422;2024-02-16T07:40:03;9.00;82.30
9393;DHT22;4736;52.508;13.422;2024-02-16T07:43:32;9.00;82.10
9393;DHT22;4736;52.508;13.422;2024-02-16T07:46:59;9.00;81.90
9393;DHT22;4736;52.508;13.422;2024-02-16T07:50:27;9.10;82.00
9393;DHT22;4736;52.508;13.422;2024-02-16T07:53:55;9.20;81.80
9393;DHT22;4736;52.508;13.422;2024-02-16T08:11:05;10.00;79.30
9393;DHT22;4736;52.508;13.422;2024-02-16T08:14:08;10.20;78.70
9393;DHT22;4736;52.508;13.422;2024-02-16T08:17:11;10.30;78.60
9393;DHT22;4736;52.508;13.422;2024-02-16T08:20:21;10.40;78.20
9393;DHT22;4736;52.508;13.422;2024-02-16T08:23:24;10.40;77.70
9393;DHT22;4736;52.508;13.422;2024-02-16T08:26:29;10.50;77.40
9393;DHT22;4736;52.508;13.422;2024-02-16T08:29:32;10.70;77.20
9393;DHT22;4736;52.508;13.422;2024-02-16T08:32:36;10.80;76.50
9393;DHT22;4736;52.508;13.422;2024-02-16T08:35:40;11.00;75.50
9393;DHT22;4736;52.508;13.422;2024-02-16T08:38:43;10.90;75.80
9393;DHT22;4736;52.508;13.422;2024-02-16T08:41:48;10.90;75.40
9393;DHT22;4736;52.508;13.422;2024-02-16T08:44:51;11.00;75.40
9393;DHT22;4736;52.508;13.422;2024-02-16T08:47:55;11.10;74.90
9393;DHT22;4736;52.508;13.422;2024-02-16T08:50:59;11.10;74.80
9393;DHT22;4736;52.508;13.422;2024-02-16T08:54:03;11.10;74.60
9393;DHT22;4736;52.508;13.422;2024-02-16T08:57:12;11.10;74.80
9393;DHT22;4736;52.508;13.422;2024-02-16T09:00:16;11.10;75.30
9393;DHT22;4736;52.508;13.422;2024-02-16T09:03:19;11.10;75.00
9393;DHT22;4736;52.508;13.422;2024-02-16T09:06:23;11.10;75.40
9393;DHT22;4736;52.508;13.422;2024-02-16T09:09:26;11.10;75.10
9393;DHT22;4736;52.508;13.422;2024-02-16T09:12:31;11.30;74.50
9393;DHT22;4736;52.508;13.422;2024-02-16T09:15:34;11.40;74.60
9393;DHT22;4736;52.508;13.422;2024-02-16T09:18:39;11.40;74.40
9393;DHT22;4736;52.508;13.422;2024-02-16T09:21:42;11.40;74.30
9393;DHT22;4736;52.508;13.422;2024-02-16T09:24:45;11.50;74.30
9393;DHT22;4736;52.508;13.422;2024-02-16T09:27:50;11.40;75.00
9393;DHT22;4736;52.508;13.422;2024-02-16T09:30:54;11.50;74.60
9393;DHT22;4736;52.508;13.422;2024-02-16T09:33:57;11.50;74.80
9393;DHT22;4736;52.508;13.422;2024-02-16T09:37:00;11.70;74.70
9393;DHT22;4736;52.508;13.422;2024-02-16T09:40:05;11.70;74.40
9393;DHT22;4736;52.508;13.422;2024-02-16T09:43:25;11.90;74.10
9393;DHT22;4736;52.508;13.422;2024-02-16T09:46:30;12.20;73.30
9393;DHT22;4736;52.508;13.422;2024-02-16T09:49:33;12.30;72.50
9393;DHT22;4736;52.508;13.422;2024-02-16T09:52:47;12.50;72.20
9393;DHT22;4736;52.508;13.422;2024-02-16T09:55:50;12.50;71.60
9393;DHT22;4736;52.508;13.422;2024-02-16T09:58:55;12.70;70.70
9393;DHT22;4736;52.508;13.422;2024-02-16T10:02:01;12.70;70.40
9393;DHT22;4736;52.508;13.422;2024-02-16T10:05:11;12.60;70.50
9393;DHT22;4736;52.508;13.422;2024-02-16T10:08:15;12.70;70.10
9393;DHT22;4736;52.508;13.422;2024-02-16T10:11:20;12.90;69.30
9393;DHT22;4736;52.508;13.422;2024-02-16T10:14:25;12.90;69.30
9393;DHT22;4736;52.508;13.422;2024-02-16T10:17:28;13.00;68.80
9393;DHT22;4736;52.508;13.422;2024-02-16T10:20:33;13.00;68.50
9393;DHT22;4736;52.508;13.422;2024-02-16T10:23:36;13.10;68.30
9393;DHT22;4736;52.508;13.422;2024-02-16T10:26:42;13.00;68.80
9393;DHT22;4736;52.508;13.422;2024-02-16T10:29:47;13.00;69.10
9393;DHT22;4736;52.508;13.422;2024-02-16T10:32:52;13.00;68.80
9393;DHT22;4736;52.508;13.422;2024-02-16T10:35:56;13.00;68.80
9393;DHT22;4736;52.508;13.422;2024-02-16T10:39:02;13.10;68.40
9393;DHT22;4736;52.508;13.422;2024-02-16T10:42:07;13.10;68.60
9393;DHT22;4736;52.508;13.422;2024-02-16T10:45:13;13.10;68.30
9393;DHT22;4736;52.508;13.422;2024-02-16T10:48:17;13.10;68.40
9393;DHT22;4736;52.508;13.422;2024-02-16T10:51:24;13.20;67.90
9393;DHT22;4736;52.508;13.422;2024-02-16T10:54:31;13.30;67.20
9393;DHT22;4736;52.508;13.422;2024-02-16T10:57:36;13.30;67.50
9393;DHT22;4736;52.508;13.422;2024-02-16T11:00:52;13.50;67.20
9393;DHT22;4736;52.508;13.422;2024-02-16T11:04:00;13.50;67.00
9393;DHT22;4736;52.508;13.422;2024-02-16T11:07:11;13.50;67.00
9393;DHT22;4736;52.508;13.422;2024-02-16T11:10:15;13.50;66.80
9393;DHT22;4736;52.508;13.422;2024-02-16T11:13:22;13.50;66.70
9393;DHT22;4736;52.508;13.422;2024-02-16T11:16:28;13.60;66.60
9393;DHT22;4736;52.508;13.422;2024-02-16T11:19:32;13.60;66.20
9393;DHT22;4736;52.508;13.422;2024-02-16T11:22:37;13.70;66.40
9393;DHT22;4736;52.508;13.422;2024-02-16T11:25:50;13.60;66.50
9393;DHT22;4736;52.508;13.422;2024-02-16T11:28:54;13.70;66.50
9393;DHT22;4736;52.508;13.422;2024-02-16T11:31:59;13.60;66.60
9393;DHT22;4736;52.508;13.422;2024-02-16T11:35:07;13.60;66.70
9393;DHT22;4736;52.508;13.422;2024-02-16T11:38:11;13.70;66.50
9393;DHT22;4736;52.508;13.422;2024-02-16T11:41:15;13.90;66.40
9393;DHT22;4736;52.508;13.422;2024-02-16T11:44:18;14.20;65.70
9393;DHT22;4736;52.508;13.422;2024-02-16T11:47:24;14.40;65.60
9393;DHT22;4736;52.508;13.422;2024-02-16T11:50:30;14.60;64.80
9393;DHT22;4736;52.508;13.422;2024-02-16T11:53:34;14.50;64.90
9393;DHT22;4736;52.508;13.422;2024-02-16T11:56:37;14.60;65.10
9393;DHT22;4736;52.508;13.422;2024-02-16T11:59:41;14.90;64.90
9393;DHT22;4736;52.508;13.422;2024-02-16T12:02:46;15.00;63.50
9393;DHT22;4736;52.508;13.422;2024-02-16T12:05:53;15.20;63.50
9393;DHT22;4736;52.508;13.422;2024-02-16T12:08:57;15.40;63.30
9393;DHT22;4736;52.508;13.422;2024-02-16T12:12:00;15.80;62.70
9393;DHT22;4736;52.508;13.422;2024-02-16T12:15:05;16.00;61.50
9393;DHT22;4736;52.508;13.422;2024-02-16T12:18:18;16.20;61.20
9393;DHT22;4736;52.508;13.422;2024-02-16T12:21:21;16.10;60.90
9393;DHT22;4736;52.508;13.422;2024-02-16T12:24:25;15.90;61.30
9393;DHT22;4736;52.508;13.422;2024-02-16T12:27:28;15.60;61.90
9393;DHT22;4736;52.508;13.422;2024-02-16T12:30:31;15.50;62.20
9393;DHT22;4736;52.508;13.422;2024-02-16T12:33:36;15.50;61.90
9393;DHT22;4736;52.508;13.422;2024-02-16T12:36:40;15.40;62.30
9393;DHT22;4736;52.508;13.422;2024-02-16T12:39:47;15.50;62.60
9393;DHT22;4736;52.508;13.422;2024-02-16T12:42:51;15.60;62.50
9393;DHT22;4736;52.508;13.422;2024-02-16T12:45:54;16.00;62.10
9393;DHT22;4736;52.508;13.422;2024-02-16T12:48:59;16.20;60.90
9393;DHT22;4736;52.508;13.422;2024-02-16T12:52:03;16.20;60.60
9393;DHT22;4736;52.508;13.422;2024-02-16T12:55:06;16.40;60.80
9393;DHT22;4736;52.508;13.422;2024-02-16T12:58:11;16.40;60.50
9393;DHT22;4736;52.508;13.422;2024-02-16T13:01:15;16.50;61.10
9393;DHT22;4736;52.508;13.422;2024-02-16T13:04:28;16.40;61.10
9393;DHT22;4736;52.508;13.422;2024-02-16T13:07:34;16.00;62.10
9393;DHT22;4736;52.508;13.422;2024-02-16T13:10:37;16.00;61.90
9393;DHT22;4736;52.508;13.422;2024-02-16T13:13:41;16.20;61.60
9393;DHT22;4736;52.508;13.422;2024-02-16T13:16:44;16.20;61.60
9393;DHT22;4736;52.508;13.422;2024-02-16T13:19:48;16.20;61.60
9393;DHT22;4736;52.508;13.422;2024-02-16T13:22:51;16.20;62.20
9393;DHT22;4736;52.508;13.422;2024-02-16T13:25:54;16.00;62.00
9393;DHT22;4736;52.508;13.422;2024-02-16T13:28:58;15.80;62.10
9393;DHT22;4736;52.508;13.422;2024-02-16T13:32:02;15.80;62.70
9393;DHT22;4736;52.508;13.422;2024-02-16T13:35:07;15.80;62.30
9393;DHT22;4736;52.508;13.422;2024-02-16T13:38:10;15.80;62.00
9393;DHT22;4736;52.508;13.422;2024-02-16T13:41:13;15.80;62.10
9393;DHT22;4736;52.508;13.422;2024-02-16T13:44:21;15.80;62.20
9393;DHT22;4736;52.508;13.422;2024-02-16T13:47:24;15.80;61.80
9393;DHT22;4736;52.508;13.422;2024-02-16T13:50:29;15.60;62.40
9393;DHT22;4736;52.508;13.422;2024-02-16T13:53:32;15.60;62.40
9393;DHT22;4736;52.508;13.422;2024-02-16T13:56:35;15.50;62.30
9393;DHT22;4736;52.508;13.422;2024-02-16T13:59:41;15.50;62.50
9393;DHT22;4736;52.508;13.422;2024-02-16T14:02:44;15.60;63.00
9393;DHT22;4736;52.508;13.422;2024-02-16T14:05:49;15.60;62.80
9393;DHT22;4736;52.508;13.422;2024-02-16T14:08:52;15.60;62.50
9393;DHT22;4736;52.508;13.422;2024-02-16T14:11:56;15.50;63.00
9393;DHT22;4736;52.508;13.422;2024-02-16T14:15:00;15.50;62.70
9393;DHT22;4736;52.508;13.422;2024-02-16T14:18:04;15.40;63.00
9393;DHT22;4736;52.508;13.422;2024-02-16T14:21:19;15.30;63.10
9393;DHT22;4736;52.508;13.422;2024-02-16T14:24:26;15.20;63.90
9393;DHT22;4736;52.508;13.422;2024-02-16T14:27:29;15.20;64.00
9393;DHT22;4736;52.508;13.422;2024-02-16T14:30:32;15.20;63.70
9393;DHT22;4736;52.508;13.422;2024-02-16T14:33:36;15.30;63.20
9393;DHT22;4736;52.508;13.422;2024-02-16T14:36:40;15.30;63.20
9393;DHT22;4736;52.508;13.422;2024-02-16T14:39:44;15.20;63.50
9393;DHT22;4736;52.508;13.422;2024-02-16T14:42:47;15.10;63.50
9393;DHT22;4736;52.508;13.422;2024-02-16T14:45:50;15.10;63.80
9393;DHT22;4736;52.508;13.422;2024-02-16T14:48:54;15.00;63.90
9393;DHT22;4736;52.508;13.422;2024-02-16T14:51:58;15.00;64.20
9393;DHT22;4736;52.508;13.422;2024-02-16T14:55:01;14.90;64.00
9393;DHT22;4736;52.508;13.422;2024-02-16T14:58:05;14.90;64.10
9393;DHT22;4736;52.508;13.422;2024-02-16T15:01:08;15.00;64.20
9393;DHT22;4736;52.508;13.422;2024-02-16T15:04:12;15.00;64.20
9393;DHT22;4736;52.508;13.422;2024-02-16T15:07:16;15.00;63.60
9393;DHT22;4736;52.508;13.422;2024-02-16T15:10:20;15.00;63.70
9393;DHT22;4736;52.508;13.422;2024-02-16T15:13:23;15.00;63.80
9393;DHT22;4736;52.508;13.422;2024-02-16T15:16:26;15.00;63.70
9393;DHT22;4736;52.508;13.422;2024-02-16T15:19:29;15.00;63.90
9393;DHT22;4736;52.508;13.422;2024-02-16T15:22:34;15.00;63.80
9393;DHT22;4736;52.508;13.422;2024-02-16T15:25:49;14.90;64.30
9393;DHT22;4736;52.508;13.422;2024-02-16T15:28:52;14.90;64.00
9393;DHT22;4736;52.508;13.422;2024-02-16T15:31:55;14.80;64.10
9393;DHT22;4736;52.508;13.422;2024-02-16T15:34:59;14.80;64.20
9393;DHT22;4736;52.508;13.422;2024-02-16T15:38:04;14.80;64.30
9393;DHT22;4736;52.508;13.422;2024-02-16T15:41:07;14.90;63.90
9393;DHT22;4736;52.508;13.422;2024-02-16T15:44:11;14.90;64.00
9393;DHT22;4736;52.508;13.422;2024-02-16T15:47:14;14.80;64.20
9393;DHT22;4736;52.508;13.422;2024-02-16T15:50:17;14.80;64.50
9393;DHT22;4736;52.508;13.422;2024-02-16T15:53:22;14.80;64.50
9393;DHT22;4736;52.508;13.422;2024-02-16T15:56:25;14.70;64.70
9393;DHT22;4736;52.508;13.422;2024-02-16T15:59:28;14.60;65.00
9393;DHT22;4736;52.508;13.422;2024-02-16T16:02:33;14.50;65.20
9393;DHT22;4736;52.508;13.422;2024-02-16T16:05:37;14.50;65.30
9393;DHT22;4736;52.508;13.422;2024-02-16T16:08:43;14.40;65.40
9393;DHT22;4736;52.508;13.422;2024-02-16T16:11:47;14.40;65.60
9393;DHT22;4736;52.508;13.422;2024-02-16T16:14:50;14.40;65.80
9393;DHT22;4736;52.508;13.422;2024-02-16T16:17:53;14.30;66.00
9393;DHT22;4736;52.508;13.422;2024-02-16T16:20:56;14.40;65.80
9393;DHT22;4736;52.508;13.422;2024-02-16T16:24:01;14.40;66.00
9393;DHT22;4736;52.508;13.422;2024-02-16T16:27:05;14.40;66.00
9393;DHT22;4736;52.508;13.422;2024-02-16T16:30:09;14.30;66.20
9393;DHT22;4736;52.508;13.422;2024-02-16T16:33:13;14.30;66.20
9393;DHT22;4736;52.508;13.422;2024-02-16T16:36:17;14.40;66.10
9393;DHT22;4736;52.508;13.422;2024-02-16T16:39:24;14.30;66.40
9393;DHT22;4736;52.508;13.422;2024-02-16T16:42:28;14.40;66.20
9393;DHT22;4736;52.508;13.422;2024-02-16T16:45:31;14.30;66.60
9393;DHT22;4736;52.508;13.422;2024-02-16T16:48:34;14.20;66.60
9393;DHT22;4736;52.508;13.422;2024-02-16T16:51:37;14.10;66.80
9393;DHT22;4736;52.508;13.422;2024-02-16T16:54:42;14.10;67.30
9393;DHT22;4736;52.508;13.422;2024-02-16T16:57:45;14.20;66.80
9393;DHT22;4736;52.508;13.422;2024-02-16T17:00:48;14.10;67.00
9393;DHT22;4736;52.508;13.422;2024-02-16T17:03:52;14.20;67.00
9393;DHT22;4736;52.508;13.422;2024-02-16T17:06:55;14.20;67.10
9393;DHT22;4736;52.508;13.422;2024-02-16T17:09:59;14.20;67.20
9393;DHT22;4736;52.508;13.422;2024-02-16T17:13:03;14.10;67.50
9393;DHT22;4736;52.508;13.422;2024-02-16T17:16:07;14.10;67.40
9393;DHT22;4736;52.508;13.422;2024-02-16T17:19:11;14.10;67.60
9393;DHT22;4736;52.508;13.422;2024-02-16T17:22:15;14.10;67.80
9393;DHT22;4736;52.508;13.422;2024-02-16T17:25:20;14.10;67.80
9393;DHT22;4736;52.508;13.422;2024-02-16T17:28:24;14.00;68.00
9393;DHT22;4736;52.508;13.422;2024-02-16T17:31:27;14.10;68.00
9393;DHT22;4736;52.508;13.422;2024-02-16T17:34:30;14.00;68.00
9393;DHT22;4736;52.508;13.422;2024-02-16T17:37:33;14.00;68.20
9393;DHT22;4736;52.508;13.422;2024-02-16T17:40:38;14.00;68.20
9393;DHT22;4736;52.508;13.422;2024-02-16T17:43:41;13.90;68.40
9393;DHT22;4736;52.508;13.422;2024-02-16T17:46:46;13.90;68.50
9393;DHT22;4736;52.508;13.422;2024-02-16T17:49:49;13.90;68.70
9393;DHT22;4736;52.508;13.422;2024-02-16T17:52:53;13.90;68.70
9393;DHT22;4736;52.508;13.422;2024-02-16T17:55:57;13.90;68.50
9393;DHT22;4736;52.508;13.422;2024-02-16T17:59:00;14.00;68.40
9393;DHT22;4736;52.508;13.422;2024-02-16T18:02:04;13.90;68.50
9393;DHT22;4736;52.508;13.422;2024-02-16T18:05:26;14.00;68.60
9393;DHT22;4736;52.508;13.422;2024-02-16T18:08:29;13.90;69.00
9393;DHT22;4736;52.508;13.422;2024-02-16T18:11:34;13.90;69.30
9393;DHT22;4736;52.508;13.422;2024-02-16T18:14:37;13.90;69.20
9393;DHT22;4736;52.508;13.422;2024-02-16T18:17:41;13.90;69.70
9393;DHT22;4736;52.508;13.422;2024-02-16T18:20:44;13.70;70.30
9393;DHT22;4736;52.508;13.422;2024-02-16T18:23:47;13.60;70.70
9393;DHT22;4736;52.508;13.422;2024-02-16T18:26:52;13.70;70.50
9393;DHT22;4736;52.508;13.422;2024-02-16T18:29:55;13.60;70.50
9393;DHT22;4736;52.508;13.422;2024-02-16T18:32:58;13.70;70.40
9393;DHT22;4736;52.508;13.422;2024-02-16T18:36:02;13.60;70.90
9393;DHT22;4736;52.508;13.422;2024-02-16T18:39:07;13.60;70.80
9393;DHT22;4736;52.508;13.422;2024-02-16T18:42:12;13.60;71.00
9393;DHT22;4736;52.508;13.422;2024-02-16T18:45:16;13.60;71.00
9393;DHT22;4736;52.508;13.422;2024-02-16T18:48:20;13.60;71.10
9393;DHT22;4736;52.508;13.422;2024-02-16T18:51:26;13.60;71.40
9393;DHT22;4736;52.508;13.422;2024-02-16T18:54:30;13.60;71.70
9393;DHT22;4736;52.508;13.422;2024-02-16T18:57:34;13.70;71.80
9393;DHT22;4736;52.508;13.422;2024-02-16T19:00:38;13.70;71.90
9393;DHT22;4736;52.508;13.422;2024-02-16T19:03:41;13.70;72.10
9393;DHT22;4736;52.508;13.422;2024-02-16T19:06:45;13.80;71.80
9393;DHT22;4736;52.508;13.422;2024-02-16T19:09:48;13.80;71.80
9393;DHT22;4736;52.508;13.422;2024-02-16T19:12:54;13.80;71.80
9393;DHT22;4736;52.508;13.422;2024-02-16T19:15:58;13.90;71.60
9393;DHT22;4736;52.508;13.422;2024-02-16T19:19:06;13.80;71.90
9393;DHT22;4736;52.508;13.422;2024-02-16T19:22:11;13.80;72.20
9393;DHT22;4736;52.508;13.422;2024-02-16T19:25:15;13.70;72.60
9393;DHT22;4736;52.508;13.422;2024-02-16T19:28:20;13.60;72.90
9393;DHT22;4736;52.508;13.422;2024-02-16T19:31:23;13.50;73.40
9393;DHT22;4736;52.508;13.422;2024-02-16T19:34:27;13.50;73.70
9393;DHT22;4736;52.508;13.422;2024-02-16T19:37:30;13.50;73.90
9393;DHT22;4736;52.508;13.422;2024-02-16T19:40:33;13.50;74.30
9393;DHT22;4736;52.508;13.422;2024-02-16T19:43:38;13.50;74.40
9393;DHT22;4736;52.508;13.422;2024-02-16T19:46:41;13.50;74.70
9393;DHT22;4736;52.508;13.422;2024-02-16T19:49:45;13.30;75.10
9393;DHT22;4736;52.508;13.422;2024-02-16T19:52:48;13.50;75.20
9393;DHT22;4736;52.508;13.422;2024-02-16T19:55:51;13.40;75.50
9393;DHT22;4736;52.508;13.422;2024-02-16T19:58:56;13.50;75.60
9393;DHT22;4736;52.508;13.422;2024-02-16T20:01:59;13.40;76.10
9393;DHT22;4736;52.508;13.422;2024-02-16T20:05:04;13.30;76.80
9393;DHT22;4736;52.508;13.422;2024-02-16T20:08:07;13.30;77.30
9393;DHT22;4736;52.508;13.422;2024-02-16T20:11:10;13.30;77.80